createdAt,value
2019-01-14T00:01:14.916Z,84.10
2019-01-14T00:03:47.014Z,84.00
2019-01-14T00:06:19.269Z,83.00
2019-01-14T00:08:51.325Z,82.50
2019-01-14T00:11:25.286Z,82.20
2019-01-14T00:13:57.554Z,81.70
2019-01-14T00:16:30.177Z,81.70
2019-01-14T00:19:02.290Z,81.60
2019-01-14T00:21:34.930Z,82.10
2019-01-14T00:24:07.046Z,81.00
2019-01-14T00:26:39.721Z,79.80
2019-01-14T00:29:12.551Z,79.20
2019-01-14T00:31:45.052Z,78.60
2019-01-14T00:34:18.207Z,78.60
2019-01-14T00:36:50.788Z,78.10
2019-01-14T00:39:22.924Z,78.30
2019-01-14T00:41:55.162Z,77.20
2019-01-14T00:44:27.467Z,76.70
2019-01-14T00:47:00.093Z,76.00
2019-01-14T00:49:32.221Z,75.70
2019-01-14T00:52:04.553Z,75.70
2019-01-14T00:54:37.298Z,74.20
2019-01-14T00:57:09.381Z,73.90
2019-01-14T00:59:41.938Z,73.10
2019-01-14T01:02:14.198Z,73.30
2019-01-14T01:04:46.484Z,72.40
2019-01-14T01:07:18.803Z,72.70
2019-01-14T01:09:51.418Z,71.10
2019-01-14T01:12:23.463Z,70.70
2019-01-14T01:14:55.587Z,70.00
2019-01-14T01:17:27.807Z,69.40
2019-01-14T01:20:00.299Z,70.00
2019-01-14T01:22:32.641Z,68.50
2019-01-14T01:25:04.896Z,68.00
2019-01-14T01:27:39.448Z,67.60
2019-01-14T01:30:16.960Z,67.00
2019-01-14T01:32:50.202Z,66.80
2019-01-14T01:35:24.473Z,65.90
2019-01-14T01:37:57.919Z,65.70
2019-01-14T01:40:30.704Z,64.70
2019-01-14T01:43:03.455Z,64.60
2019-01-14T01:45:35.601Z,65.50
2019-01-14T01:48:07.771Z,64.70
2019-01-14T01:50:40.224Z,63.30
2019-01-14T01:53:12.462Z,63.90
2019-01-14T01:55:44.915Z,63.90
2019-01-14T01:58:17.035Z,63.50
2019-01-14T02:00:49.575Z,62.70
2019-01-14T02:03:21.661Z,60.90
2019-01-14T02:05:53.814Z,60.60
2019-01-14T02:08:26.207Z,60.50
2019-01-14T02:10:58.621Z,61.00
2019-01-14T02:13:31.209Z,60.30
2019-01-14T02:16:03.304Z,57.90
2019-01-14T02:18:35.841Z,59.10
2019-01-14T02:21:08.095Z,58.90
2019-01-14T02:23:40.879Z,57.30
2019-01-14T02:26:12.990Z,58.20
2019-01-14T02:28:45.809Z,59.50
2019-01-14T02:31:18.070Z,57.40
2019-01-14T02:33:50.693Z,57.00
2019-01-14T02:36:22.886Z,56.60
2019-01-14T02:38:55.122Z,55.60
2019-01-14T02:41:27.384Z,56.70
2019-01-14T02:44:00.018Z,58.10
2019-01-14T02:46:32.302Z,56.30
2019-01-14T02:49:05.028Z,55.00
2019-01-14T02:51:38.671Z,55.30
2019-01-14T02:57:18.489Z,53.70
2019-01-14T02:59:51.682Z,53.20
2019-01-14T03:02:24.587Z,52.40
2019-01-14T03:04:57.211Z,51.00
2019-01-14T03:07:29.918Z,52.60
2019-01-14T03:10:02.237Z,50.80
2019-01-14T03:12:34.376Z,50.60
2019-01-14T03:15:09.148Z,51.30
2019-01-14T03:17:41.695Z,51.10
2019-01-14T03:20:17.190Z,50.50
2019-01-14T03:22:50.915Z,49.60
2019-01-14T03:25:23.450Z,50.80
2019-01-14T03:27:55.556Z,49.80
2019-01-14T03:30:27.804Z,48.70
2019-01-14T03:32:59.954Z,48.40
2019-01-14T03:35:32.068Z,48.60
2019-01-14T03:38:04.417Z,46.90
2019-01-14T03:40:37.000Z,46.90
2019-01-14T03:43:09.259Z,47.40
2019-01-14T03:45:41.837Z,46.70
2019-01-14T03:48:14.227Z,47.40
2019-01-14T03:50:47.117Z,46.10
2019-01-14T03:53:19.463Z,48.90
2019-01-14T03:55:51.418Z,47.60
2019-01-14T03:58:23.896Z,46.60
2019-01-14T04:00:56.059Z,44.70
2019-01-14T04:03:28.229Z,46.20
2019-01-14T04:06:00.860Z,47.00
2019-01-14T04:08:33.053Z,46.60
2019-01-14T04:11:05.886Z,47.70
2019-01-14T04:13:38.306Z,44.20
2019-01-14T04:16:10.507Z,43.30
2019-01-14T04:18:42.975Z,43.10
2019-01-14T04:21:16.449Z,43.80
2019-01-14T04:23:49.190Z,43.00
2019-01-14T04:26:21.561Z,42.90
2019-01-14T04:28:53.895Z,42.10
2019-01-14T04:31:26.540Z,43.00
2019-01-14T04:34:00.014Z,43.10
2019-01-14T04:36:32.352Z,41.50
2019-01-14T04:39:05.983Z,41.30
2019-01-14T04:41:38.313Z,42.30
2019-01-14T04:44:10.856Z,42.70
2019-01-14T04:46:43.100Z,40.70
2019-01-14T04:49:15.425Z,41.60
2019-01-14T04:51:51.431Z,40.70
2019-01-14T04:54:25.794Z,41.80
2019-01-14T04:56:57.911Z,41.20
2019-01-14T04:59:29.951Z,40.30
2019-01-14T05:02:02.077Z,41.70
2019-01-14T05:04:34.586Z,41.00
2019-01-14T05:07:06.657Z,41.10
2019-01-14T05:09:38.840Z,39.10
2019-01-14T05:12:10.875Z,40.20
2019-01-14T05:14:43.037Z,39.70
2019-01-14T05:17:15.129Z,39.10
2019-01-14T05:19:47.595Z,38.60
2019-01-14T05:22:19.882Z,39.70
2019-01-14T05:24:52.120Z,41.40
2019-01-14T05:27:24.540Z,39.20
2019-01-14T05:29:56.890Z,38.60
2019-01-14T05:32:29.288Z,36.80
2019-01-14T05:35:01.769Z,37.00
2019-01-14T05:37:37.579Z,37.30
2019-01-14T05:40:09.790Z,38.20
2019-01-14T05:42:41.730Z,36.90
2019-01-14T05:45:14.388Z,38.90
2019-01-14T05:47:46.899Z,38.20
2019-01-14T05:50:19.101Z,36.40
2019-01-14T05:52:51.609Z,36.80
2019-01-14T05:55:23.697Z,38.70
2019-01-14T05:57:56.804Z,38.40
2019-01-14T06:00:32.770Z,36.10
2019-01-14T06:03:05.090Z,37.50
2019-01-14T06:05:37.308Z,37.90
2019-01-14T06:08:09.828Z,39.00
2019-01-14T06:10:42.089Z,37.90
2019-01-14T06:13:14.328Z,36.70
2019-01-14T06:15:46.373Z,35.60
2019-01-14T06:18:19.371Z,35.90
2019-01-14T06:20:51.719Z,38.50
2019-01-14T06:23:23.958Z,38.90
2019-01-14T06:25:56.041Z,36.60
2019-01-14T06:28:28.808Z,36.10
2019-01-14T06:31:00.872Z,35.70
2019-01-14T06:33:33.540Z,36.60
2019-01-14T06:36:06.044Z,36.90
2019-01-14T06:38:38.196Z,35.50
2019-01-14T06:41:10.322Z,34.70
2019-01-14T06:43:42.582Z,37.00
2019-01-14T06:46:14.817Z,38.40
2019-01-14T06:48:47.229Z,34.90
2019-01-14T06:51:19.512Z,34.50
2019-01-14T06:53:51.653Z,36.20
2019-01-14T06:56:23.787Z,37.00
2019-01-14T06:58:55.894Z,35.30
2019-01-14T07:01:28.684Z,37.20
2019-01-14T07:04:01.096Z,38.40
2019-01-14T07:06:33.528Z,37.30
2019-01-14T07:09:07.898Z,37.30
2019-01-14T07:11:41.052Z,37.10
2019-01-14T07:14:13.296Z,37.40
2019-01-14T07:16:45.522Z,36.60
2019-01-14T07:19:17.783Z,34.20
2019-01-14T07:21:50.258Z,34.80
2019-01-14T07:24:22.427Z,36.50
2019-01-14T07:26:54.818Z,34.80
2019-01-14T07:29:27.228Z,34.10
2019-01-14T07:32:00.227Z,35.10
2019-01-14T07:34:38.730Z,33.80
2019-01-14T07:37:11.065Z,33.90
2019-01-14T07:39:43.794Z,36.00
2019-01-14T07:42:15.996Z,36.20
2019-01-14T07:44:48.326Z,35.20
2019-01-14T07:47:20.780Z,35.50
2019-01-14T07:49:54.337Z,36.30
2019-01-14T07:52:26.437Z,36.90
2019-01-14T07:54:58.759Z,37.40
2019-01-14T07:57:30.817Z,35.50
2019-01-14T08:00:03.250Z,36.10
2019-01-14T08:02:36.175Z,35.80
2019-01-14T08:05:08.853Z,37.70
2019-01-14T08:07:41.109Z,37.60
2019-01-14T08:10:13.797Z,37.50
2019-01-14T08:12:46.096Z,37.60
2019-01-14T08:15:20.406Z,37.40
2019-01-14T08:17:52.582Z,36.10
2019-01-14T08:20:24.966Z,35.50
2019-01-14T08:22:57.038Z,35.90
2019-01-14T08:25:29.610Z,35.50
2019-01-14T08:28:01.661Z,33.80
2019-01-14T08:30:33.884Z,34.70
2019-01-14T08:33:06.341Z,35.80
2019-01-14T08:35:38.930Z,35.80
2019-01-14T08:38:11.467Z,35.90
2019-01-14T08:40:43.961Z,35.60
2019-01-14T08:43:16.404Z,36.60
2019-01-14T08:45:49.310Z,37.60
2019-01-14T08:48:21.732Z,36.90
2019-01-14T08:50:54.219Z,37.00
2019-01-14T08:53:27.055Z,37.00
2019-01-14T08:55:59.360Z,37.00
2019-01-14T08:58:31.395Z,37.30
2019-01-14T09:01:03.688Z,37.80
2019-01-14T09:03:35.926Z,38.20
2019-01-14T09:06:08.561Z,38.20
2019-01-14T09:08:40.928Z,37.30
2019-01-14T09:11:13.365Z,38.30
2019-01-14T09:13:45.554Z,37.50
2019-01-14T09:16:18.066Z,37.70
2019-01-14T09:18:51.243Z,36.90
2019-01-14T09:21:23.585Z,37.90
2019-01-14T09:23:56.518Z,37.60
2019-01-14T09:26:28.500Z,37.70
2019-01-14T09:29:01.086Z,37.50
2019-01-14T09:31:34.578Z,38.00
2019-01-14T09:34:07.851Z,38.50
2019-01-14T09:36:40.089Z,40.40
2019-01-14T09:39:12.657Z,37.50
2019-01-14T09:41:45.728Z,38.00
2019-01-14T09:44:17.911Z,38.40
2019-01-14T09:46:50.214Z,38.30
2019-01-14T09:49:22.660Z,38.70
2019-01-14T09:51:55.023Z,38.60
2019-01-14T09:54:27.506Z,38.80
2019-01-14T09:56:59.851Z,39.80
2019-01-14T09:59:33.300Z,40.50
2019-01-14T10:02:05.574Z,40.10
2019-01-14T10:04:38.101Z,40.70
2019-01-14T10:07:10.604Z,40.20
2019-01-14T10:09:43.170Z,41.30
2019-01-14T10:12:15.750Z,39.50
2019-01-14T10:14:48.833Z,41.50
2019-01-14T10:17:22.143Z,40.90
2019-01-14T10:19:55.288Z,41.50
2019-01-14T10:22:27.440Z,42.60
2019-01-14T10:24:59.890Z,42.10
2019-01-14T10:27:32.260Z,42.20
2019-01-14T10:30:04.663Z,42.50
2019-01-14T10:32:38.306Z,42.30
2019-01-14T10:35:11.746Z,43.60
2019-01-14T10:37:44.173Z,44.20
2019-01-14T10:40:20.164Z,43.30
2019-01-14T10:42:53.129Z,44.50
2019-01-14T10:45:26.011Z,45.20
2019-01-14T10:47:58.588Z,46.20
2019-01-14T10:50:31.577Z,46.50
2019-01-14T10:53:04.265Z,47.50
2019-01-14T10:55:37.267Z,47.60
2019-01-14T10:58:09.556Z,47.50
2019-01-14T11:00:42.143Z,49.00
2019-01-14T11:03:14.588Z,50.20
2019-01-14T11:05:46.825Z,48.60
2019-01-14T11:08:18.985Z,51.00
2019-01-14T11:10:51.403Z,50.90
2019-01-14T11:13:23.871Z,50.40
2019-01-14T11:15:57.234Z,51.00
2019-01-14T11:18:29.420Z,50.50
2019-01-14T11:21:01.843Z,50.50
2019-01-14T11:23:34.105Z,50.60
2019-01-14T11:26:06.622Z,50.20
2019-01-14T11:28:38.823Z,49.40
2019-01-14T11:31:11.016Z,51.40
2019-01-14T11:33:43.990Z,51.80
2019-01-14T11:36:16.650Z,51.10
2019-01-14T11:38:50.165Z,51.60
2019-01-14T11:41:22.877Z,54.00
2019-01-14T11:43:54.990Z,52.30
2019-01-14T11:46:27.473Z,52.80
2019-01-14T11:48:59.870Z,53.40
2019-01-14T11:51:31.941Z,53.90
2019-01-14T11:54:04.107Z,53.30
2019-01-14T11:56:37.076Z,53.80
2019-01-14T11:59:09.170Z,54.10
2019-01-14T12:01:41.698Z,53.90
2019-01-14T12:04:14.211Z,54.10
2019-01-14T12:06:46.718Z,53.40
2019-01-14T12:09:18.978Z,54.10
2019-01-14T12:11:51.515Z,55.10
2019-01-14T12:14:24.782Z,55.50
2019-01-14T12:16:57.069Z,55.60
2019-01-14T12:19:29.384Z,56.10
2019-01-14T12:22:01.671Z,56.10
2019-01-14T12:24:34.202Z,56.60
2019-01-14T12:27:06.610Z,56.90
2019-01-14T12:29:39.457Z,56.60
2019-01-14T12:32:12.040Z,56.80
2019-01-14T12:34:44.206Z,56.90
2019-01-14T12:37:16.688Z,56.90
2019-01-14T12:39:48.764Z,57.20
2019-01-14T12:42:21.393Z,57.20
2019-01-14T12:44:53.720Z,56.90
2019-01-14T12:47:26.342Z,56.70
2019-01-14T12:49:58.487Z,56.90
2019-01-14T12:52:30.537Z,58.00
2019-01-14T12:55:02.709Z,57.90
2019-01-14T12:57:35.102Z,57.70
2019-01-14T13:00:09.753Z,58.10
2019-01-14T13:02:43.136Z,58.30
2019-01-14T13:05:16.064Z,58.50
2019-01-14T13:07:48.761Z,58.50
2019-01-14T13:10:21.104Z,58.70
2019-01-14T13:12:53.472Z,58.70
2019-01-14T13:15:35.989Z,59.80
2019-01-14T13:18:08.578Z,59.80
2019-01-14T13:20:40.725Z,60.20
2019-01-14T13:23:12.928Z,60.00
2019-01-14T13:25:45.068Z,61.40
2019-01-14T13:28:17.516Z,61.40
2019-01-14T13:30:50.175Z,61.40
2019-01-14T13:33:22.306Z,61.60
2019-01-14T13:35:55.664Z,62.70
2019-01-14T13:38:27.741Z,62.00
2019-01-14T13:41:00.124Z,62.30
2019-01-14T13:43:32.344Z,62.50
2019-01-14T13:46:04.731Z,61.40
2019-01-14T13:48:37.007Z,60.90
2019-01-14T13:51:09.807Z,60.30
2019-01-14T13:53:42.074Z,60.30
2019-01-14T13:56:14.584Z,61.00
2019-01-14T13:58:46.967Z,60.80
2019-01-14T14:01:19.711Z,60.60
2019-01-14T14:03:52.164Z,61.20
2019-01-14T14:06:24.649Z,61.10
2019-01-14T14:08:56.819Z,61.80
2019-01-14T14:11:28.862Z,62.10
2019-01-14T14:14:01.211Z,62.20
2019-01-14T14:16:33.380Z,61.40
2019-01-14T14:19:05.666Z,62.20
2019-01-14T14:21:37.992Z,63.50
2019-01-14T14:24:10.260Z,63.20
2019-01-14T14:26:42.706Z,64.10
2019-01-14T14:29:15.455Z,64.20
2019-01-14T14:31:47.784Z,63.40
2019-01-14T14:34:20.343Z,63.70
2019-01-14T14:36:52.747Z,62.80
2019-01-14T14:39:25.105Z,63.40
2019-01-14T14:41:57.312Z,64.70
2019-01-14T14:44:29.252Z,65.30
2019-01-14T14:47:01.792Z,64.90
2019-01-14T14:49:33.755Z,64.60
2019-01-14T14:52:06.233Z,65.20
2019-01-14T14:54:38.635Z,66.10
2019-01-14T14:57:11.137Z,66.30
2019-01-14T14:59:43.443Z,66.30
2019-01-14T15:02:16.579Z,66.40
2019-01-14T15:04:51.196Z,66.60
2019-01-14T15:07:36.888Z,65.90
2019-01-14T15:10:11.627Z,66.40
2019-01-14T15:12:44.092Z,65.90
2019-01-14T15:15:17.725Z,65.80
2019-01-14T15:17:50.183Z,65.50
2019-01-14T15:20:23.858Z,66.90
2019-01-14T15:22:57.681Z,66.00
2019-01-14T15:25:30.306Z,66.10
2019-01-14T15:28:02.775Z,67.90
2019-01-14T15:30:35.199Z,67.00
2019-01-14T15:33:19.857Z,66.70
2019-01-14T15:35:52.291Z,67.30
2019-01-14T15:38:24.368Z,68.30
2019-01-14T15:40:56.531Z,68.30
2019-01-14T15:43:28.504Z,67.00
2019-01-14T15:46:01.114Z,68.30
2019-01-14T15:48:34.652Z,68.50
2019-01-14T15:51:07.584Z,68.10
2019-01-14T15:53:39.630Z,68.40
2019-01-14T15:56:11.723Z,68.50
2019-01-14T15:58:44.437Z,70.10
2019-01-14T16:01:16.626Z,70.20
2019-01-14T16:03:48.868Z,69.20
2019-01-14T16:06:21.263Z,68.80
2019-01-14T16:08:53.305Z,69.70
2019-01-14T16:11:25.508Z,70.10
2019-01-14T16:13:57.763Z,70.20
2019-01-14T16:16:30.054Z,70.60
2019-01-14T16:19:02.204Z,70.60
2019-01-14T16:21:34.390Z,71.20
2019-01-14T16:24:06.762Z,71.60
2019-01-14T16:26:39.590Z,72.60
2019-01-14T16:29:12.319Z,72.90
2019-01-14T16:31:44.931Z,73.20
2019-01-14T16:34:16.945Z,73.00
2019-01-14T16:36:49.378Z,73.70
2019-01-14T16:39:21.497Z,74.40
2019-01-14T16:41:54.452Z,74.70
2019-01-14T16:44:26.684Z,73.80
2019-01-14T16:46:58.826Z,74.20
2019-01-14T16:49:31.003Z,73.70
2019-01-14T16:52:03.668Z,72.50
2019-01-14T16:54:35.780Z,71.50
2019-01-14T16:57:08.326Z,72.40
2019-01-14T16:59:41.397Z,74.00
2019-01-14T17:02:14.104Z,74.20
2019-01-14T17:04:46.439Z,74.00
2019-01-14T17:07:18.743Z,74.20
2019-01-14T17:09:51.228Z,74.60
2019-01-14T17:12:23.485Z,74.00
2019-01-14T17:14:55.804Z,73.50
2019-01-14T17:17:29.477Z,73.90
2019-01-14T17:20:01.819Z,74.20
2019-01-14T17:22:34.390Z,74.50
2019-01-14T17:25:07.843Z,74.40
2019-01-14T17:27:40.413Z,74.20
2019-01-14T17:30:15.238Z,74.20
2019-01-14T17:32:47.713Z,75.00
2019-01-14T17:35:20.610Z,75.20
2019-01-14T17:37:53.302Z,75.20
2019-01-14T17:40:32.308Z,75.30
2019-01-14T17:42:59.554Z,75.20
2019-01-14T17:45:31.644Z,75.30
2019-01-14T17:48:03.825Z,75.90
2019-01-14T17:50:36.101Z,75.90
2019-01-14T17:53:08.925Z,75.60
2019-01-14T17:55:41.279Z,74.90
2019-01-14T17:58:13.489Z,75.50
2019-01-14T18:00:45.756Z,76.60
2019-01-14T18:03:18.244Z,75.30
2019-01-14T18:05:50.395Z,76.20
2019-01-14T18:08:22.931Z,76.40
2019-01-14T18:11:01.524Z,76.50
2019-01-14T18:13:29.064Z,76.30
2019-01-14T18:16:01.298Z,75.80
2019-01-14T18:18:34.041Z,76.40
2019-01-14T18:21:13.298Z,77.30
2019-01-14T18:23:40.384Z,77.70
2019-01-14T18:26:12.736Z,78.30
2019-01-14T18:28:45.126Z,78.20
2019-01-14T18:31:17.501Z,78.70
2019-01-14T18:33:49.988Z,79.00
2019-01-14T18:36:22.863Z,79.10
2019-01-14T18:38:55.309Z,78.40
2019-01-14T18:41:27.711Z,78.60
2019-01-14T18:43:59.899Z,78.10
2019-01-14T18:46:32.390Z,77.70
2019-01-14T18:49:04.700Z,77.30
2019-01-14T18:51:37.189Z,76.90
2019-01-14T18:54:09.722Z,76.40
2019-01-14T18:56:41.920Z,76.50
2019-01-14T18:59:13.954Z,76.00
2019-01-14T19:01:46.381Z,76.50
2019-01-14T19:04:18.894Z,75.80
2019-01-14T19:06:51.050Z,77.10
2019-01-14T19:09:24.012Z,75.80
2019-01-14T19:11:56.778Z,75.40
2019-01-14T19:14:28.970Z,76.30
2019-01-14T19:17:01.432Z,75.50
2019-01-14T19:19:34.115Z,75.10
2019-01-14T19:22:06.435Z,75.30
2019-01-14T19:24:38.495Z,75.60
2019-01-14T19:27:16.410Z,74.80
2019-01-14T19:29:44.897Z,74.30
2019-01-14T19:32:17.276Z,74.60
2019-01-14T19:34:50.114Z,75.30
2019-01-14T19:37:22.777Z,75.70
2019-01-14T19:39:54.942Z,76.40
2019-01-14T19:42:27.112Z,75.80
2019-01-14T19:44:59.817Z,75.30
2019-01-14T19:47:32.378Z,75.50
2019-01-14T19:50:04.882Z,76.00
2019-01-14T19:52:37.062Z,75.90
2019-01-14T19:55:09.701Z,75.00
2019-01-14T19:57:41.963Z,74.80
2019-01-14T20:00:17.195Z,75.30
2019-01-14T20:02:49.678Z,75.30
2019-01-14T20:05:22.030Z,74.90
2019-01-14T20:07:54.747Z,75.80
2019-01-14T20:10:27.309Z,75.90
2019-01-14T20:12:59.718Z,75.40
2019-01-14T20:15:32.158Z,75.90
2019-01-14T20:18:04.378Z,75.80
2019-01-14T20:20:36.461Z,75.70
2019-01-14T20:23:08.662Z,75.20
2019-01-14T20:25:41.240Z,75.30
2019-01-14T20:28:13.502Z,76.00
2019-01-14T20:30:46.307Z,76.00
2019-01-14T20:33:19.672Z,75.40
2019-01-14T20:35:52.263Z,75.30
2019-01-14T20:38:24.401Z,75.80
2019-01-14T20:40:56.989Z,75.60
2019-01-14T20:43:30.166Z,74.90
2019-01-14T20:46:02.786Z,76.00
2019-01-14T20:48:35.142Z,75.80
2019-01-14T20:51:07.755Z,75.30
2019-01-14T20:53:40.030Z,74.60
2019-01-14T20:56:12.244Z,74.60
2019-01-14T20:58:45.076Z,74.80
2019-01-14T21:01:17.230Z,76.30
2019-01-14T21:03:49.807Z,77.80
2019-01-14T21:06:22.470Z,76.60
2019-01-14T21:08:55.173Z,76.40
2019-01-14T21:11:27.248Z,76.00
2019-01-14T21:13:59.676Z,75.70
2019-01-14T21:16:31.939Z,75.50
2019-01-14T21:19:04.443Z,75.60
2019-01-14T21:21:36.616Z,75.30
2019-01-14T21:24:08.722Z,75.30
2019-01-14T21:26:40.885Z,74.90
2019-01-14T21:29:14.028Z,75.00
2019-01-14T21:31:46.407Z,75.70
2019-01-14T21:34:18.659Z,76.10
2019-01-14T21:36:51.292Z,75.30
2019-01-14T21:39:24.100Z,75.20
2019-01-14T21:41:56.357Z,75.80
2019-01-14T21:44:28.318Z,75.30
2019-01-14T21:47:00.858Z,75.60
2019-01-14T21:49:33.032Z,76.50
2019-01-14T21:52:05.306Z,76.60
2019-01-14T21:54:37.429Z,76.40
2019-01-14T21:57:09.908Z,76.50
2019-01-14T21:59:42.291Z,76.30
2019-01-14T22:02:14.976Z,76.00
2019-01-14T22:04:47.739Z,75.50
2019-01-14T22:07:19.945Z,76.00
2019-01-14T22:09:52.420Z,75.80
2019-01-14T22:12:25.217Z,76.40
2019-01-14T22:14:57.499Z,77.00
2019-01-14T22:17:29.896Z,77.10
2019-01-14T22:20:01.330Z,77.10
2019-01-14T22:22:33.851Z,76.90
2019-01-14T22:25:07.556Z,77.10
2019-01-14T22:27:39.809Z,77.40
2019-01-14T22:30:14.690Z,77.60
2019-01-14T22:32:47.139Z,78.00
2019-01-14T22:35:19.438Z,78.00
2019-01-14T22:37:52.406Z,78.40
2019-01-14T22:40:24.646Z,77.60
2019-01-14T22:42:57.025Z,78.00
2019-01-14T22:45:29.712Z,77.10
2019-01-14T22:48:02.261Z,77.10
2019-01-14T22:50:34.460Z,76.60
2019-01-14T22:53:06.914Z,77.40
2019-01-14T22:55:39.553Z,76.90
2019-01-14T22:58:11.709Z,77.90
2019-01-14T23:00:47.739Z,78.00
2019-01-14T23:03:21.475Z,77.70
2019-01-14T23:05:53.816Z,77.80
2019-01-14T23:08:26.250Z,77.70
2019-01-14T23:11:10.601Z,78.90
2019-01-14T23:13:42.878Z,78.70
2019-01-14T23:16:15.219Z,78.90
2019-01-14T23:18:47.717Z,79.00
2019-01-14T23:21:20.314Z,78.60
2019-01-14T23:23:52.897Z,77.90
2019-01-14T23:26:25.251Z,78.50
2019-01-14T23:28:57.500Z,78.70
2019-01-14T23:31:30.801Z,78.80
2019-01-14T23:34:03.041Z,78.60
2019-01-14T23:36:35.297Z,78.30
2019-01-14T23:39:09.795Z,77.90
2019-01-14T23:41:41.914Z,77.20
2019-01-14T23:44:14.556Z,77.50
2019-01-14T23:46:48.449Z,77.60
2019-01-14T23:49:20.719Z,77.80
2019-01-14T23:51:53.602Z,77.40
2019-01-14T23:54:25.751Z,77.50
2019-01-14T23:56:58.002Z,76.60
2019-01-14T23:59:30.117Z,77.10
